sensor_id;sensor_type;location;lat;lon;timestamp;pressure;altitude;pressure_sealevel;temperature;humidity
27334;BME280;14817;57.104;-2.094;2023-03-05T00:01:18;101476.72;;;2.99;100.00
27334;BME280;14817;57.104;-2.094;2023-03-05T00:03:45;101474.91;;;3.00;100.00
27334;BME280;14817;57.104;-2.094;2023-03-05T00:06:12;101463.00;;;3.09;100.00
27334;BME280;14817;57.104;-2.094;2023-03-05T00:08:39;101460.78;;;3.01;100.00
27334;BME280;14817;57.104;-2.094;2023-03-05T00:11:08;101464.25;;;3.01;100.00
27334;BME280;14817;57.104;-2.094;2023-03-05T00:13:36;101457.34;;;2.99;100.00
27334;BME280;14817;57.104;-2.094;2023-03-05T00:16:04;101456.47;;;2.98;100.00
27334;BME280;14817;57.104;-2.094;2023-03-05T00:18:33;101462.78;;;2.96;100.00
27334;BME280;14817;57.104;-2.094;2023-03-05T00:20:59;101453.22;;;2.93;100.00
27334;BME280;14817;57.104;-2.094;2023-03-05T00:23:27;101451.97;;;2.83;100.00
27334;BME280;14817;57.104;-2.094;2023-03-05T00:25:53;101454.16;;;2.75;100.00
27334;BME280;14817;57.104;-2.094;2023-03-05T00:28:20;101454.47;;;2.86;100.00
27334;BME280;14817;57.104;-2.094;2023-03-05T00:30:47;101446.75;;;2.81;100.00
27334;BME280;14817;57.104;-2.094;2023-03-05T00:33:14;101449.25;;;2.84;100.00
27334;BME280;14817;57.104;-2.094;2023-03-05T00:35:44;101441.31;;;2.84;100.00
27334;BME280;14817;57.104;-2.094;2023-03-05T00:38:12;101439.47;;;2.86;100.00
27334;BME280;14817;57.104;-2.094;2023-03-05T00:40:39;101441.09;;;2.89;100.00
27334;BME280;14817;57.104;-2.094;2023-03-05T00:43:07;101433.75;;;2.94;100.00
27334;BME280;14817;57.104;-2.094;2023-03-05T00:45:34;101430.88;;;2.99;100.00
27334;BME280;14817;57.104;-2.094;2023-03-05T00:48:02;101424.72;;;2.98;100.00
27334;BME280;14817;57.104;-2.094;2023-03-05T00:50:29;101417.81;;;2.96;100.00
27334;BME280;14817;57.104;-2.094;2023-03-05T00:52:56;101413.41;;;3.12;100.00
27334;BME280;14817;57.104;-2.094;2023-03-05T00:55:23;101407.00;;;3.16;100.00
27334;BME280;14817;57.104;-2.094;2023-03-05T00:57:50;101405.47;;;3.12;100.00
27334;BME280;14817;57.104;-2.094;2023-03-05T01:00:17;101404.44;;;3.15;100.00
27334;BME280;14817;57.104;-2.094;2023-03-05T01:02:44;101397.78;;;3.08;100.00
27334;BME280;14817;57.104;-2.094;2023-03-05T01:05:12;101396.06;;;3.06;100.00
27334;BME280;14817;57.104;-2.094;2023-03-05T01:07:39;101397.41;;;2.98;100.00
27334;BME280;14817;57.104;-2.094;2023-03-05T01:10:07;101393.13;;;2.95;100.00
27334;BME280;14817;57.104;-2.094;2023-03-05T01:12:34;101386.81;;;2.98;100.00
27334;BME280;14817;57.104;-2.094;2023-03-05T01:15:04;101386.94;;;2.79;100.00
27334;BME280;14817;57.104;-2.094;2023-03-05T01:17:31;101383.41;;;2.96;100.00
27334;BME280;14817;57.104;-2.094;2023-03-05T01:19:58;101386.69;;;2.83;100.00
27334;BME280;14817;57.104;-2.094;2023-03-05T01:22:24;101371.44;;;2.89;100.00
27334;BME280;14817;57.104;-2.094;2023-03-05T01:24:51;101382.44;;;2.81;100.00
27334;BME280;14817;57.104;-2.094;2023-03-05T01:27:18;101374.66;;;2.78;100.00
27334;BME280;14817;57.104;-2.094;2023-03-05T01:29:45;101373.13;;;2.74;100.00
27334;BME280;14817;57.104;-2.094;2023-03-05T01:32:12;101366.63;;;2.79;100.00
27334;BME280;14817;57.104;-2.094;2023-03-05T01:34:38;101361.75;;;2.72;100.00
27334;BME280;14817;57.104;-2.094;2023-03-05T01:37:07;101356.72;;;2.67;100.00
27334;BME280;14817;57.104;-2.094;2023-03-05T01:39:34;101356.56;;;2.70;100.00
27334;BME280;14817;57.104;-2.094;2023-03-05T01:42:02;101352.28;;;2.68;100.00
27334;BME280;14817;57.104;-2.094;2023-03-05T01:44:31;101342.63;;;2.66;100.00
27334;BME280;14817;57.104;-2.094;2023-03-05T01:46:58;101338.09;;;2.69;100.00
27334;BME280;14817;57.104;-2.094;2023-03-05T01:49:34;101329.75;;;2.60;100.00
27334;BME280;14817;57.104;-2.094;2023-03-05T01:52:04;101336.91;;;2.58;100.00
27334;BME280;14817;57.104;-2.094;2023-03-05T01:54:36;101326.16;;;2.61;100.00
27334;BME280;14817;57.104;-2.094;2023-03-05T01:57:06;101318.03;;;2.64;100.00
27334;BME280;14817;57.104;-2.094;2023-03-05T01:59:36;101321.63;;;2.48;100.00
27334;BME280;14817;57.104;-2.094;2023-03-05T02:02:05;101308.22;;;2.51;100.00
27334;BME280;14817;57.104;-2.094;2023-03-05T02:04:40;101305.56;;;2.51;100.00
27334;BME280;14817;57.104;-2.094;2023-03-05T02:07:09;101301.44;;;2.45;100.00
27334;BME280;14817;57.104;-2.094;2023-03-05T02:09:38;101304.41;;;2.39;100.00
27334;BME280;14817;57.104;-2.094;2023-03-05T02:12:07;101292.69;;;2.44;100.00
27334;BME280;14817;57.104;-2.094;2023-03-05T02:14:35;101297.13;;;2.44;100.00
27334;BME280;14817;57.104;-2.094;2023-03-05T02:17:04;101294.94;;;2.52;100.00
27334;BME280;14817;57.104;-2.094;2023-03-05T02:19:46;101275.47;;;2.53;100.00
27334;BME280;14817;57.104;-2.094;2023-03-05T02:22:14;101269.97;;;2.40;100.00
27334;BME280;14817;57.104;-2.094;2023-03-05T02:24:40;101258.38;;;2.43;100.00
27334;BME280;14817;57.104;-2.094;2023-03-05T02:27:07;101258.38;;;2.43;100.00
27334;BME280;14817;57.104;-2.094;2023-03-05T02:29:36;101248.69;;;2.43;100.00
27334;BME280;14817;57.104;-2.094;2023-03-05T02:32:06;101246.13;;;2.42;100.00
27334;BME280;14817;57.104;-2.094;2023-03-05T02:34:35;101240.31;;;2.51;100.00
27334;BME280;14817;57.104;-2.094;2023-03-05T02:37:03;101239.66;;;2.48;100.00
27334;BME280;14817;57.104;-2.094;2023-03-05T02:39:32;101232.41;;;2.51;100.00
27334;BME280;14817;57.104;-2.094;2023-03-05T02:41:59;101218.16;;;2.54;100.00
27334;BME280;14817;57.104;-2.094;2023-03-05T02:44:26;101217.16;;;2.56;100.00
27334;BME280;14817;57.104;-2.094;2023-03-05T02:46:53;101213.03;;;2.51;100.00
27334;BME280;14817;57.104;-2.094;2023-03-05T02:49:20;101213.88;;;2.51;100.00
27334;BME280;14817;57.104;-2.094;2023-03-05T02:51:47;101210.47;;;2.49;100.00
27334;BME280;14817;57.104;-2.094;2023-03-05T02:54:14;101199.75;;;2.52;100.00
27334;BME280;14817;57.104;-2.094;2023-03-05T02:56:41;101194.34;;;2.54;100.00
27334;BME280;14817;57.104;-2.094;2023-03-05T02:59:09;101186.97;;;2.60;100.00
27334;BME280;14817;57.104;-2.094;2023-03-05T03:01:35;101176.53;;;2.57;100.00
27334;BME280;14817;57.104;-2.094;2023-03-05T03:04:02;101172.97;;;2.58;100.00
27334;BME280;14817;57.104;-2.094;2023-03-05T03:06:29;101168.47;;;2.60;100.00
27334;BME280;14817;57.104;-2.094;2023-03-05T03:08:56;101162.22;;;2.61;100.00
27334;BME280;14817;57.104;-2.094;2023-03-05T03:11:23;101169.22;;;2.62;100.00
27334;BME280;14817;57.104;-2.094;2023-03-05T03:13:51;101158.47;;;2.65;100.00
27334;BME280;14817;57.104;-2.094;2023-03-05T03:16:18;101157.88;;;2.60;100.00
27334;BME280;14817;57.104;-2.094;2023-03-05T03:18:45;101151.56;;;2.63;100.00
27334;BME280;14817;57.104;-2.094;2023-03-05T03:21:21;101142.59;;;2.65;100.00
27334;BME280;14817;57.104;-2.094;2023-03-05T03:23:48;101137.13;;;2.69;100.00
27334;BME280;14817;57.104;-2.094;2023-03-05T03:26:16;101133.72;;;2.66;100.00
27334;BME280;14817;57.104;-2.094;2023-03-05T03:28:44;101134.75;;;2.64;100.00
27334;BME280;14817;57.104;-2.094;2023-03-05T03:31:12;101118.88;;;2.64;100.00
27334;BME280;14817;57.104;-2.094;2023-03-05T03:33:40;101119.13;;;2.59;100.00
27334;BME280;14817;57.104;-2.094;2023-03-05T03:36:07;101119.91;;;2.61;100.00
27334;BME280;14817;57.104;-2.094;2023-03-05T03:38:34;101114.53;;;2.63;100.00
27334;BME280;14817;57.104;-2.094;2023-03-05T03:41:01;101108.75;;;2.56;100.00
27334;BME280;14817;57.104;-2.094;2023-03-05T03:43:28;101103.19;;;2.61;100.00
27334;BME280;14817;57.104;-2.094;2023-03-05T03:45:55;101108.13;;;2.51;100.00
27334;BME280;14817;57.104;-2.094;2023-03-05T03:48:22;101097.41;;;2.54;100.00
27334;BME280;14817;57.104;-2.094;2023-03-05T03:50:49;101088.88;;;2.49;100.00
27334;BME280;14817;57.104;-2.094;2023-03-05T03:53:16;101099.78;;;2.43;100.00
27334;BME280;14817;57.104;-2.094;2023-03-05T03:55:43;101092.31;;;2.35;100.00
27334;BME280;14817;57.104;-2.094;2023-03-05T03:58:12;101089.38;;;2.56;100.00
27334;BME280;14817;57.104;-2.094;2023-03-05T04:00:39;101082.38;;;2.39;100.00
27334;BME280;14817;57.104;-2.094;2023-03-05T04:03:06;101082.38;;;2.39;100.00
27334;BME280;14817;57.104;-2.094;2023-03-05T04:05:33;101077.63;;;2.45;100.00
27334;BME280;14817;57.104;-2.094;2023-03-05T04:08:00;101074.81;;;2.49;100.00
27334;BME280;14817;57.104;-2.094;2023-03-05T04:10:27;101069.94;;;2.41;100.00
27334;BME280;14817;57.104;-2.094;2023-03-05T04:12:53;101066.28;;;2.43;100.00
27334;BME280;14817;57.104;-2.094;2023-03-05T04:15:20;101064.06;;;2.36;100.00
27334;BME280;14817;57.104;-2.094;2023-03-05T04:17:47;101064.59;;;2.27;100.00
27334;BME280;14817;57.104;-2.094;2023-03-05T04:20:14;101066.22;;;2.29;100.00
27334;BME280;14817;57.104;-2.094;2023-03-05T04:22:40;101061.63;;;2.33;100.00
27334;BME280;14817;57.104;-2.094;2023-03-05T04:25:07;101054.53;;;2.33;100.00
27334;BME280;14817;57.104;-2.094;2023-03-05T04:27:35;101042.44;;;2.29;100.00
27334;BME280;14817;57.104;-2.094;2023-03-05T04:30:03;101046.00;;;2.28;100.00
27334;BME280;14817;57.104;-2.094;2023-03-05T04:32:30;101037.06;;;2.31;100.00
27334;BME280;14817;57.104;-2.094;2023-03-05T04:34:58;101039.16;;;2.24;100.00
27334;BME280;14817;57.104;-2.094;2023-03-05T04:37:26;101038.50;;;2.20;100.00
27334;BME280;14817;57.104;-2.094;2023-03-05T04:39:53;101033.88;;;2.24;100.00
27334;BME280;14817;57.104;-2.094;2023-03-05T04:42:19;101030.25;;;2.27;100.00
27334;BME280;14817;57.104;-2.094;2023-03-05T04:44:50;101031.59;;;2.34;100.00
27334;BME280;14817;57.104;-2.094;2023-03-05T04:47:19;101030.25;;;2.27;100.00
27334;BME280;14817;57.104;-2.094;2023-03-05T04:49:46;101023.44;;;2.22;100.00
27334;BME280;14817;57.104;-2.094;2023-03-05T04:52:14;101021.56;;;2.24;100.00
27334;BME280;14817;57.104;-2.094;2023-03-05T04:54:43;101022.22;;;2.28;100.00
27334;BME280;14817;57.104;-2.094;2023-03-05T04:57:10;101015.38;;;2.24;100.00
27334;BME280;14817;57.104;-2.094;2023-03-05T04:59:37;101015.66;;;2.35;100.00
27334;BME280;14817;57.104;-2.094;2023-03-05T05:02:04;101011.41;;;2.33;100.00
27334;BME280;14817;57.104;-2.094;2023-03-05T05:04:32;101015.19;;;2.43;100.00
27334;BME280;14817;57.104;-2.094;2023-03-05T05:07:01;101002.16;;;2.40;100.00
27334;BME280;14817;57.104;-2.094;2023-03-05T05:09:29;101005.56;;;2.42;100.00
27334;BME280;14817;57.104;-2.094;2023-03-05T05:11:56;101006.88;;;2.35;100.00
27334;BME280;14817;57.104;-2.094;2023-03-05T05:14:24;101004.03;;;2.38;100.00
27334;BME280;14817;57.104;-2.094;2023-03-05T05:16:51;100999.53;;;2.40;100.00
27334;BME280;14817;57.104;-2.094;2023-03-05T05:19:17;100996.69;;;2.43;100.00
27334;BME280;14817;57.104;-2.094;2023-03-05T05:21:45;100996.03;;;2.39;100.00
27334;BME280;14817;57.104;-2.094;2023-03-05T05:24:12;100994.41;;;2.37;100.00
27334;BME280;14817;57.104;-2.094;2023-03-05T05:26:39;101001.59;;;2.35;100.00
27334;BME280;14817;57.104;-2.094;2023-03-05T05:29:05;100989.03;;;2.38;100.00
27334;BME280;14817;57.104;-2.094;2023-03-05T05:31:35;100983.66;;;2.40;100.00
27334;BME280;14817;57.104;-2.094;2023-03-05T05:34:02;100987.69;;;2.31;100.00
27334;BME280;14817;57.104;-2.094;2023-03-05T05:36:29;100976.00;;;2.35;100.00
27334;BME280;14817;57.104;-2.094;2023-03-05T05:38:57;100975.91;;;2.37;100.00
27334;BME280;14817;57.104;-2.094;2023-03-05T05:41:24;100974.97;;;2.38;100.00
27334;BME280;14817;57.104;-2.094;2023-03-05T05:43:50;100973.94;;;2.40;100.00
27334;BME280;14817;57.104;-2.094;2023-03-05T05:46:19;100967.03;;;2.38;100.00
27334;BME280;14817;57.104;-2.094;2023-03-05T05:48:46;100967.03;;;2.38;100.00
27334;BME280;14817;57.104;-2.094;2023-03-05T05:51:19;100960.81;;;2.39;100.00
27334;BME280;14817;57.104;-2.094;2023-03-05T05:53:47;100966.28;;;2.36;100.00
27334;BME280;14817;57.104;-2.094;2023-03-05T05:56:14;100961.84;;;2.36;100.00
27334;BME280;14817;57.104;-2.094;2023-03-05T05:58:43;100948.47;;;2.39;100.00
27334;BME280;14817;57.104;-2.094;2023-03-05T06:01:22;100958.69;;;2.30;100.00
27334;BME280;14817;57.104;-2.094;2023-03-05T06:03:49;100951.75;;;2.43;100.00
27334;BME280;14817;57.104;-2.094;2023-03-05T06:06:19;100949.22;;;2.41;100.00
27334;BME280;14817;57.104;-2.094;2023-03-05T06:08:47;100951.50;;;2.48;100.00
27334;BME280;14817;57.104;-2.094;2023-03-05T06:11:14;100950.91;;;2.42;100.00
27334;BME280;14817;57.104;-2.094;2023-03-05T06:13:45;100945.75;;;2.55;100.00
27334;BME280;14817;57.104;-2.094;2023-03-05T06:16:14;100948.72;;;2.65;100.00
27334;BME280;14817;57.104;-2.094;2023-03-05T06:18:42;100947.06;;;2.48;100.00
27334;BME280;14817;57.104;-2.094;2023-03-05T06:21:14;100931.69;;;2.55;100.00
27334;BME280;14817;57.104;-2.094;2023-03-05T06:23:41;100934.41;;;2.53;100.00
27334;BME280;14817;57.104;-2.094;2023-03-05T06:26:10;100929.06;;;2.55;100.00
27334;BME280;14817;57.104;-2.094;2023-03-05T06:28:38;100927.03;;;2.44;100.00
27334;BME280;14817;57.104;-2.094;2023-03-05T06:31:13;100929.41;;;2.49;100.00
27334;BME280;14817;57.104;-2.094;2023-03-05T06:33:41;100921.97;;;2.55;100.00
27334;BME280;14817;57.104;-2.094;2023-03-05T06:36:13;100919.13;;;2.44;100.00
27334;BME280;14817;57.104;-2.094;2023-03-05T06:38:40;100916.38;;;2.45;100.00
27334;BME280;14817;57.104;-2.094;2023-03-05T06:41:10;100909.78;;;2.53;100.00
27334;BME280;14817;57.104;-2.094;2023-03-05T06:43:40;100903.94;;;2.62;100.00
27334;BME280;14817;57.104;-2.094;2023-03-05T06:46:11;100904.81;;;2.62;100.00
27334;BME280;14817;57.104;-2.094;2023-03-05T06:48:38;100893.84;;;2.69;100.00
27334;BME280;14817;57.104;-2.094;2023-03-05T06:51:15;100892.44;;;2.63;100.00
27334;BME280;14817;57.104;-2.094;2023-03-05T06:53:43;100889.88;;;2.61;100.00
27334;BME280;14817;57.104;-2.094;2023-03-05T06:56:11;100896.56;;;2.53;100.00
27334;BME280;14817;57.104;-2.094;2023-03-05T06:58:39;100891.41;;;2.65;100.00
27334;BME280;14817;57.104;-2.094;2023-03-05T07:01:06;100889.69;;;2.64;100.00
27334;BME280;14817;57.104;-2.094;2023-03-05T07:03:34;100888.19;;;2.60;100.00
27334;BME280;14817;57.104;-2.094;2023-03-05T07:06:07;100888.66;;;2.67;100.00
27334;BME280;14817;57.104;-2.094;2023-03-05T07:08:35;100888.34;;;2.57;100.00
27334;BME280;14817;57.104;-2.094;2023-03-05T07:11:03;100894.31;;;2.61;100.00
27334;BME280;14817;57.104;-2.094;2023-03-05T07:13:30;100886.09;;;2.65;100.00
27334;BME280;14817;57.104;-2.094;2023-03-05T07:15:56;100893.56;;;2.59;100.00
27334;BME280;14817;57.104;-2.094;2023-03-05T07:18:23;100892.16;;;2.68;100.00
27334;BME280;14817;57.104;-2.094;2023-03-05T07:20:50;100902.41;;;2.58;100.00
27334;BME280;14817;57.104;-2.094;2023-03-05T07:23:17;100887.50;;;2.57;100.00
27334;BME280;14817;57.104;-2.094;2023-03-05T07:25:43;100887.91;;;2.65;100.00
27334;BME280;14817;57.104;-2.094;2023-03-05T07:28:10;100879.78;;;2.68;100.00
27334;BME280;14817;57.104;-2.094;2023-03-05T07:30:37;100883.94;;;2.72;100.00
27334;BME280;14817;57.104;-2.094;2023-03-05T07:33:04;100878.19;;;2.80;100.00
27334;BME280;14817;57.104;-2.094;2023-03-05T07:35:30;100882.34;;;2.84;100.00
27334;BME280;14817;57.104;-2.094;2023-03-05T07:37:57;100881.00;;;2.77;100.00
27334;BME280;14817;57.104;-2.094;2023-03-05T07:40:24;100873.53;;;2.83;100.00
27334;BME280;14817;57.104;-2.094;2023-03-05T07:42:51;100880.56;;;2.99;100.00
27334;BME280;14817;57.104;-2.094;2023-03-05T07:45:27;100877.81;;;2.86;100.00
27334;BME280;14817;57.104;-2.094;2023-03-05T07:47:54;100870.91;;;2.98;100.00
27334;BME280;14817;57.104;-2.094;2023-03-05T07:50:23;100869.47;;;3.06;100.00
27334;BME280;14817;57.104;-2.094;2023-03-05T07:52:50;100879.03;;;2.95;100.00
27334;BME280;14817;57.104;-2.094;2023-03-05T07:55:16;100885.94;;;2.83;100.00
27334;BME280;14817;57.104;-2.094;2023-03-05T07:57:43;100873.38;;;3.01;100.00
27334;BME280;14817;57.104;-2.094;2023-03-05T08:00:11;100881.19;;;3.02;100.00
27334;BME280;14817;57.104;-2.094;2023-03-05T08:02:38;100874.94;;;3.18;100.00
27334;BME280;14817;57.104;-2.094;2023-03-05T08:05:05;100873.81;;;3.22;100.00
27334;BME280;14817;57.104;-2.094;2023-03-05T08:07:32;100871.44;;;3.32;100.00
27334;BME280;14817;57.104;-2.094;2023-03-05T08:10:00;100869.34;;;3.37;100.00
27334;BME280;14817;57.104;-2.094;2023-03-05T08:12:28;100858.75;;;3.37;100.00
27334;BME280;14817;57.104;-2.094;2023-03-05T08:14:55;100853.00;;;3.30;100.00
27334;BME280;14817;57.104;-2.094;2023-03-05T08:17:21;100851.19;;;3.31;100.00
27334;BME280;14817;57.104;-2.094;2023-03-05T08:19:48;100856.97;;;3.37;100.00
27334;BME280;14817;57.104;-2.094;2023-03-05T08:22:16;100859.41;;;3.40;100.00
27334;BME280;14817;57.104;-2.094;2023-03-05T08:24:45;100860.63;;;3.49;100.00
27334;BME280;14817;57.104;-2.094;2023-03-05T08:27:12;100858.88;;;3.89;100.00
27334;BME280;14817;57.104;-2.094;2023-03-05T08:29:39;100854.19;;;4.20;100.00
27334;BME280;14817;57.104;-2.094;2023-03-05T08:32:05;100853.78;;;4.26;100.00
27334;BME280;14817;57.104;-2.094;2023-03-05T08:34:32;100845.97;;;4.63;100.00
27334;BME280;14817;57.104;-2.094;2023-03-05T08:36:59;100848.47;;;4.90;100.00
27334;BME280;14817;57.104;-2.094;2023-03-05T08:39:26;100848.38;;;5.05;100.00
27334;BME280;14817;57.104;-2.094;2023-03-05T08:41:53;100842.97;;;5.43;100.00
27334;BME280;14817;57.104;-2.094;2023-03-05T08:44:20;100837.44;;;5.46;100.00
27334;BME280;14817;57.104;-2.094;2023-03-05T08:46:46;100830.31;;;6.19;100.00
27334;BME280;14817;57.104;-2.094;2023-03-05T08:49:15;100823.81;;;5.99;100.00
27334;BME280;14817;57.104;-2.094;2023-03-05T08:51:42;100815.09;;;5.73;100.00
27334;BME280;14817;57.104;-2.094;2023-03-05T08:54:09;100817.72;;;5.62;100.00
27334;BME280;14817;57.104;-2.094;2023-03-05T08:56:36;100815.78;;;5.64;100.00
27334;BME280;14817;57.104;-2.094;2023-03-05T08:59:03;100823.88;;;5.62;100.00
27334;BME280;14817;57.104;-2.094;2023-03-05T09:01:30;100826.53;;;5.38;100.00
27334;BME280;14817;57.104;-2.094;2023-03-05T09:03:58;100831.16;;;5.10;100.00
27334;BME280;14817;57.104;-2.094;2023-03-05T09:06:26;100830.84;;;5.02;100.00
27334;BME280;14817;57.104;-2.094;2023-03-05T09:08:53;100833.59;;;5.01;100.00
27334;BME280;14817;57.104;-2.094;2023-03-05T09:11:21;100833.16;;;5.20;100.00
27334;BME280;14817;57.104;-2.094;2023-03-05T09:13:48;100830.94;;;5.14;100.00
27334;BME280;14817;57.104;-2.094;2023-03-05T09:16:17;100829.28;;;4.87;100.00
27334;BME280;14817;57.104;-2.094;2023-03-05T09:18:44;100827.38;;;4.89;100.00
27334;BME280;14817;57.104;-2.094;2023-03-05T09:21:14;100818.34;;;4.91;100.00
27334;BME280;14817;57.104;-2.094;2023-03-05T09:23:41;100821.19;;;4.88;100.00
27334;BME280;14817;57.104;-2.094;2023-03-05T09:26:09;100821.75;;;4.94;100.00
27334;BME280;14817;57.104;-2.094;2023-03-05T09:28:41;100821.09;;;4.90;100.00
27334;BME280;14817;57.104;-2.094;2023-03-05T09:31:08;100831.06;;;4.99;100.00
27334;BME280;14817;57.104;-2.094;2023-03-05T09:33:36;100830.06;;;4.76;100.00
27334;BME280;14817;57.104;-2.094;2023-03-05T09:36:12;100829.81;;;4.79;100.00
27334;BME280;14817;57.104;-2.094;2023-03-05T09:38:41;100834.06;;;4.69;100.00
27334;BME280;14817;57.104;-2.094;2023-03-05T09:51:44;100830.88;;;4.25;100.00
27334;BME280;14817;57.104;-2.094;2023-03-05T09:54:41;100834.44;;;4.12;100.00
27334;BME280;14817;57.104;-2.094;2023-03-05T09:57:14;100825.66;;;4.24;100.00
27334;BME280;14817;57.104;-2.094;2023-03-05T09:59:57;100827.56;;;4.22;100.00
27334;BME280;14817;57.104;-2.094;2023-03-05T10:02:27;100824.81;;;4.23;100.00
27334;BME280;14817;57.104;-2.094;2023-03-05T10:07:35;100820.38;;;4.24;100.00
27334;BME280;14817;57.104;-2.094;2023-03-05T10:10:17;100819.63;;;4.35;100.00
27334;BME280;14817;57.104;-2.094;2023-03-05T10:12:50;100811.06;;;4.44;100.00
27334;BME280;14817;57.104;-2.094;2023-03-05T10:17:55;100816.06;;;4.61;100.00
27334;BME280;14817;57.104;-2.094;2023-03-05T10:34:59;100809.81;;;4.99;100.00
27334;BME280;14817;57.104;-2.094;2023-03-05T10:45:52;100800.22;;;5.22;100.00
27334;BME280;14817;57.104;-2.094;2023-03-05T10:53:54;100794.75;;;5.61;100.00
27334;BME280;14817;57.104;-2.094;2023-03-05T10:56:24;100795.09;;;5.32;100.00
27334;BME280;14817;57.104;-2.094;2023-03-05T10:58:51;100786.34;;;5.19;100.00
27334;BME280;14817;57.104;-2.094;2023-03-05T11:01:26;100790.22;;;5.50;100.00
27334;BME280;14817;57.104;-2.094;2023-03-05T11:03:58;100782.34;;;5.61;100.00
27334;BME280;14817;57.104;-2.094;2023-03-05T11:06:44;100781.22;;;5.88;100.00
27334;BME280;14817;57.104;-2.094;2023-03-05T11:12:16;100766.06;;;6.01;100.00
27334;BME280;14817;57.104;-2.094;2023-03-05T11:17:41;100771.06;;;6.17;100.00
27334;BME280;14817;57.104;-2.094;2023-03-05T11:23:08;100764.66;;;6.31;100.00
27334;BME280;14817;57.104;-2.094;2023-03-05T11:28:19;100762.63;;;6.23;100.00
27334;BME280;14817;57.104;-2.094;2023-03-05T11:31:01;100758.75;;;6.27;100.00
27334;BME280;14817;57.104;-2.094;2023-03-05T11:33:29;100761.78;;;6.45;100.00
27334;BME280;14817;57.104;-2.094;2023-03-05T11:36:38;100765.03;;;6.38;100.00
27334;BME280;14817;57.104;-2.094;2023-03-05T11:46:55;100766.31;;;6.09;100.00
27334;BME280;14817;57.104;-2.094;2023-03-05T11:49:26;100767.56;;;6.28;100.00
27334;BME280;14817;57.104;-2.094;2023-03-05T11:55:14;100767.09;;;6.34;100.00
27334;BME280;14817;57.104;-2.094;2023-03-05T11:57:47;100756.56;;;6.21;100.00
27334;BME280;14817;57.104;-2.094;2023-03-05T12:00:19;100762.25;;;6.39;100.00
27334;BME280;14817;57.104;-2.094;2023-03-05T12:02:51;100751.25;;;6.44;100.00
27334;BME280;14817;57.104;-2.094;2023-03-05T12:05:20;100752.34;;;6.52;100.00
27334;BME280;14817;57.104;-2.094;2023-03-05T12:07:49;100747.75;;;6.54;100.00
27334;BME280;14817;57.104;-2.094;2023-03-05T12:10:23;100750.44;;;6.66;100.00
27334;BME280;14817;57.104;-2.094;2023-03-05T12:18:36;100743.88;;;6.59;100.00
27334;BME280;14817;57.104;-2.094;2023-03-05T12:24:00;100732.66;;;6.55;100.00
27334;BME280;14817;57.104;-2.094;2023-03-05T12:29:48;100749.09;;;6.49;100.00
27334;BME280;14817;57.104;-2.094;2023-03-05T12:34:59;100731.22;;;6.51;100.00
27334;BME280;14817;57.104;-2.094;2023-03-05T12:52:56;100721.25;;;6.42;100.00
27334;BME280;14817;57.104;-2.094;2023-03-05T12:58:02;100718.88;;;6.27;100.00
27334;BME280;14817;57.104;-2.094;2023-03-05T13:00:41;100724.16;;;6.16;100.00
27334;BME280;14817;57.104;-2.094;2023-03-05T13:03:16;100718.63;;;6.30;100.00
27334;BME280;14817;57.104;-2.094;2023-03-05T13:05:52;100713.09;;;5.87;100.00
27334;BME280;14817;57.104;-2.094;2023-03-05T13:08:25;100713.47;;;5.93;100.00
27334;BME280;14817;57.104;-2.094;2023-03-05T13:13:23;100705.53;;;6.05;100.00
27334;BME280;14817;57.104;-2.094;2023-03-05T13:15:51;100707.41;;;5.91;100.00
27334;BME280;14817;57.104;-2.094;2023-03-05T13:18:19;100704.84;;;6.25;100.00
27334;BME280;14817;57.104;-2.094;2023-03-05T13:20:46;100697.56;;;6.16;100.00
27334;BME280;14817;57.104;-2.094;2023-03-05T13:23:25;100697.94;;;6.23;100.00
27334;BME280;14817;57.104;-2.094;2023-03-05T13:26:14;100687.91;;;6.38;100.00
27334;BME280;14817;57.104;-2.094;2023-03-05T13:28:44;100690.78;;;6.46;100.00
27334;BME280;14817;57.104;-2.094;2023-03-05T13:31:28;100678.47;;;6.45;100.00
27334;BME280;14817;57.104;-2.094;2023-03-05T13:34:04;100683.31;;;6.28;100.00
27334;BME280;14817;57.104;-2.094;2023-03-05T13:36:33;100676.53;;;6.47;100.00
27334;BME280;14817;57.104;-2.094;2023-03-05T13:39:00;100681.00;;;6.46;100.00
27334;BME280;14817;57.104;-2.094;2023-03-05T13:41:28;100673.38;;;6.42;100.00
27334;BME280;14817;57.104;-2.094;2023-03-05T13:43:59;100671.72;;;6.29;100.00
27334;BME280;14817;57.104;-2.094;2023-03-05T13:46:35;100670.97;;;6.50;100.00
27334;BME280;14817;57.104;-2.094;2023-03-05T13:49:26;100666.84;;;6.57;100.00
27334;BME280;14817;57.104;-2.094;2023-03-05T13:51:56;100664.31;;;6.56;100.00
27334;BME280;14817;57.104;-2.094;2023-03-05T13:54:24;100659.13;;;6.43;100.00
27334;BME280;14817;57.104;-2.094;2023-03-05T13:56:55;100667.09;;;6.54;100.00
27334;BME280;14817;57.104;-2.094;2023-03-05T13:59:24;100653.19;;;6.39;100.00
27334;BME280;14817;57.104;-2.094;2023-03-05T14:01:54;100653.91;;;6.41;100.00
27334;BME280;14817;57.104;-2.094;2023-03-05T14:04:29;100652.84;;;6.32;100.00
27334;BME280;14817;57.104;-2.094;2023-03-05T14:07:02;100649.22;;;6.22;100.00
27334;BME280;14817;57.104;-2.094;2023-03-05T14:12:13;100647.03;;;6.16;100.00
27334;BME280;14817;57.104;-2.094;2023-03-05T14:14:47;100645.09;;;6.18;100.00
27334;BME280;14817;57.104;-2.094;2023-03-05T14:22:44;100636.66;;;6.13;100.00
27334;BME280;14817;57.104;-2.094;2023-03-05T14:28:02;100627.56;;;6.27;100.00
27334;BME280;14817;57.104;-2.094;2023-03-05T14:30:29;100623.59;;;6.21;100.00
27334;BME280;14817;57.104;-2.094;2023-03-05T14:32:58;100615.63;;;6.21;100.00
27334;BME280;14817;57.104;-2.094;2023-03-05T14:35:27;100615.75;;;6.08;100.00
27334;BME280;14817;57.104;-2.094;2023-03-05T14:37:56;100611.13;;;5.99;100.00
27334;BME280;14817;57.104;-2.094;2023-03-05T14:40:31;100617.78;;;5.93;100.00
27334;BME280;14817;57.104;-2.094;2023-03-05T14:43:07;100605.06;;;5.75;100.00